Strona główna
METAR-TAF:

METAR-TAF

Lotnisko :

Port lotniczy Khon Kaen

Khon Kaen, Tajlandia

Szerokość geograficzna: 16-26N, Długość geograficzna: 102-50E, wysokość: 165 m

Aktualna obserwacja pogody

Raport powstał 56 minut temu, godzina 22:00 UTC
Wiatr 2 kt z kierunków zmiennych
Temperatura 26°C
Wilgotność 94%
Ciśnienie 1011 hPa
Widzialność: 7000 m
Mało chmury na wysokości 600 ft
Rozproszone chmury na wysokości 8000 ft

METAR: VTUK 302200Z VRB02KT 7000 FEW006 SCT080 26/25 Q1011 NOSIG

czas: 05:56 (22:56 UTC)

Prognoza

Raport powstał 5 godziny i 56 minut temu, godzina 17:00 UTC
Prognoza ważna od 30 godzina 18 UTC do 31 godzina 18 UTC
Wiatr 5 kt od południowo-południowy zachód
Widzialność: 9000 m
Rozproszone chmury na wysokości 3000 ft
Przejściowo
od 31 godzina 08 UTC do 31 godzina 15 UTC
Wiatr 15 kt z kierunków zmiennych
Widzialność: 4000 m
Mało chmury na wysokości 1800 ft, Cumulonimbus.
Przerywane chmury na wysokości 2500 ft
burza, deszcz

TAF: VTUK 301700Z 3018/3118 21005KT 9000 SCT030 TEMPO 3108/3115 VRB15KT 4000 TSRA FEW018CB BKN025

Obserwacja i prognoza pogody dla ponad 4000 lotnisk (raport METAR i TAF).

Dostępne stacje oznaczono żółtymi i czerwonymi punktami na mapie.

Najedź kursorem aby zobaczyć nazwę stacji.

Kliknij aby zobaczyć obserwacje i prognozy pogody.

Aby zmienić mapę: kliknij na zielony przycisk z czarnym krzyżykiem, aby powiększyć; na zielony przycisk z myślnikiem, aby pomniejszyć; na zielone strzałki, aby przejść do map sąsiednich.


METAR-TAF: